Time;durP1;ratioP1;P1;durP2;ratioP2;P2;SDS_P1;SDS_P2;PMS_P1;PMS_P2;Temp;Humidity;BMP_temperature;BMP_pressure;BME280_temperature;BME280_humidity;BME280_pressure;Samples;Min_cycle;Max_cycle;Signal;HPM_P1;HPM_P2
2023/03/05 00:01:27;;;;;;;38.95;20.25;;;;;;;6.13;84.90;96548.91;5061805;28;20549;-48
2023/03/05 00:03:56;;;;;;;39.72;18.70;;;;;;;6.48;83.10;96545.41;5062785;28;20091;-46
2023/03/05 00:06:28;;;;;;;38.15;17.73;;;;;;;5.99;90.57;96539.47;5066696;28;20086;-48
2023/03/05 00:08:57;;;;;;;38.88;18.65;;;;;;;6.15;90.57;96536.53;5064808;28;20095;-51
2023/03/05 00:11:28;;;;;;;35.85;15.27;;;;;;;6.01;95.73;96534.13;5064997;28;20087;-48
2023/03/05 00:13:58;;;;;;;39.10;18.20;;;;;;;6.25;89.01;96531.44;5060130;28;20080;-48
2023/03/05 00:16:28;;;;;;;42.90;17.95;;;;;;;5.76;95.69;96535.91;5059834;28;20080;-45
2023/03/05 00:18:57;;;;;;;40.80;19.15;;;;;;;6.05;95.97;96530.31;5064763;28;20102;-51
2023/03/05 00:21:29;;;;;;;36.17;16.27;;;;;;;6.28;96.34;96528.59;5064122;28;20084;-47
2023/03/05 00:23:59;;;;;;;35.00;16.55;;;;;;;6.11;97.08;96524.63;5062552;28;20079;-46
2023/03/05 00:26:29;;;;;;;37.08;18.27;;;;;;;6.12;95.05;96521.88;5065186;28;20076;-50
2023/03/05 00:28:58;;;;;;;36.13;14.50;;;;;;;6.34;91.11;96528.97;5061774;28;20556;-50
2023/03/05 00:31:29;;;;;;;34.03;13.90;;;;;;;5.81;99.09;96522.47;5059544;28;20075;-46
2023/03/05 00:34:00;;;;;;;36.95;16.58;;;;;;;6.35;95.46;96517.53;5063731;28;20083;-46
2023/03/05 00:36:29;;;;;;;32.47;12.57;;;;;;;6.35;92.30;96517.53;5062155;28;20091;-47
2023/03/05 00:38:58;;;;;;;27.30;11.93;;;;;;;5.84;97.41;96517.00;5062303;28;20505;-49
2023/03/05 00:41:27;;;;;;;23.98;11.73;;;;;;;6.02;96.03;96512.22;5063300;28;20084;-50
2023/03/05 00:43:56;;;;;;;38.83;16.73;;;;;;;5.74;100.00;96516.03;5063221;28;20091;-46
2023/03/05 00:46:26;;;;;;;37.13;18.52;;;;;;;5.85;100.00;96510.81;5061546;28;20278;-45
2023/03/05 00:48:54;;;;;;;28.60;12.63;;;;;;;5.65;100.00;96515.78;5062254;28;20079;-50
2023/03/05 00:51:23;;;;;;;22.70;10.45;;;;;;;5.98;100.00;96508.16;5065848;28;20490;-47
2023/03/05 00:53:53;;;;;;;34.22;14.65;;;;;;;6.25;100.00;96502.63;5062286;28;21081;-49
2023/03/05 00:56:22;;;;;;;22.30;9.48;;;;;;;6.24;97.54;96512.28;5065376;28;20182;-50
2023/03/05 00:58:52;;;;;;;30.90;14.40;;;;;;;6.07;100.00;96508.31;5058935;28;20087;-50
2023/03/05 01:01:20;;;;;;;22.95;10.52;;;;;;;5.52;100.00;96503.69;5060037;28;20068;-50
2023/03/05 01:03:49;;;;;;;36.00;17.60;;;;;;;5.54;100.00;96504.41;5062857;28;20072;-49
2023/03/05 01:06:18;;;;;;;34.10;12.70;;;;;;;5.72;100.00;96503.91;5062730;28;20092;-52
2023/03/05 01:08:46;;;;;;;33.25;13.18;;;;;;;5.45;100.00;96505.94;5063164;28;20068;-48
2023/03/05 01:11:16;;;;;;;25.15;11.77;;;;;;;5.74;100.00;96495.94;5059329;28;20095;-53
2023/03/05 01:13:44;;;;;;;36.53;15.87;;;;;;;5.81;100.00;96501.53;5056206;28;20157;-52
2023/03/05 01:16:13;;;;;;;42.60;18.40;;;;;;;6.00;100.00;96493.19;5059683;28;20099;-54
2023/03/05 01:18:41;;;;;;;24.15;8.98;;;;;;;5.79;100.00;96495.59;5056010;28;20482;-50
2023/03/05 01:21:10;;;;;;;37.42;16.98;;;;;;;5.99;100.00;96486.28;5061098;28;20095;-50
2023/03/05 01:23:38;;;;;;;33.60;11.40;;;;;;;5.39;100.00;96488.06;5065035;28;20088;-51
2023/03/05 01:26:08;;;;;;;32.08;11.30;;;;;;;6.06;100.00;96485.72;5064620;28;20087;-46
2023/03/05 01:28:38;;;;;;;31.63;14.25;;;;;;;5.67;100.00;96479.03;5057496;28;20085;-46
2023/03/05 01:31:08;;;;;;;40.20;15.70;;;;;;;6.09;100.00;96474.16;5059904;28;20497;-49
2023/03/05 01:33:37;;;;;;;33.92;12.85;;;;;;;5.85;100.00;96477.66;5059060;28;20084;-44
2023/03/05 01:36:12;;;;;;;28.85;12.90;;;;;;;5.85;100.00;96468.94;5060980;28;20086;-49
2023/03/05 01:38:40;;;;;;;25.70;11.18;;;;;;;5.52;100.00;96467.91;5058353;28;20084;-43
2023/03/05 01:41:09;;;;;;;29.85;11.10;;;;;;;5.58;100.00;96458.78;5061693;28;20142;-46
2023/03/05 01:43:39;;;;;;;26.58;10.63;;;;;;;5.80;100.00;96458.84;5059079;28;20088;-45
2023/03/05 01:46:34;;;;;;;36.22;13.70;;;;;;;5.90;100.00;96453.75;5058668;28;20083;-48
2023/03/05 01:49:12;;;;;;;26.30;11.98;;;;;;;5.82;100.00;96448.28;5058034;28;20088;-49
2023/03/05 01:51:44;;;;;;;28.48;13.05;;;;;;;5.61;100.00;96446.31;5067464;28;20087;-48
2023/03/05 01:54:14;;;;;;;30.80;13.38;;;;;;;5.78;100.00;96446.81;5058055;28;20091;-51
2023/03/05 01:56:43;;;;;;;26.85;12.25;;;;;;;5.26;100.00;96443.66;5058813;28;20088;-48
2023/03/05 01:59:14;;;;;;;32.03;14.13;;;;;;;5.35;100.00;96442.19;5057470;28;20080;-47
2023/03/05 02:01:45;;;;;;;45.92;18.45;;;;;;;6.07;100.00;96432.41;5059611;28;20088;-45
2023/03/05 02:04:15;;;;;;;50.38;21.70;;;;;;;5.74;100.00;96430.50;5057624;28;20076;-44
2023/03/05 02:06:44;;;;;;;40.72;17.73;;;;;;;6.03;100.00;96432.75;5059467;28;20510;-48
2023/03/05 02:09:13;;;;;;;32.10;13.60;;;;;;;5.37;100.00;96433.28;5048719;28;20068;-53
2023/03/05 02:11:42;;;;;;;33.95;13.93;;;;;;;5.93;100.00;96438.69;5058005;28;20099;-51
2023/03/05 02:14:10;;;;;;;36.63;15.30;;;;;;;5.90;100.00;96425.78;5058617;28;20881;-49
2023/03/05 02:16:41;;;;;;;38.58;17.88;;;;;;;5.22;100.00;96426.53;5057517;28;20564;-48
2023/03/05 02:19:11;;;;;;;46.45;19.13;;;;;;;5.70;100.00;96424.69;5056402;28;20076;-50
2023/03/05 02:21:43;;;;;;;26.20;11.50;;;;;;;5.45;100.00;96412.63;5057391;28;20167;-47
2023/03/05 02:24:13;;;;;;;32.65;13.38;;;;;;;5.39;100.00;96427.91;5057686;28;20076;-48
2023/03/05 02:26:43;;;;;;;26.30;10.05;;;;;;;5.45;100.00;96415.22;5057358;28;20072;-47
2023/03/05 02:29:15;;;;;;;37.20;15.10;;;;;;;5.80;100.00;96411.75;5056784;28;20072;-44
2023/03/05 02:31:43;;;;;;;28.77;11.73;;;;;;;6.27;100.00;96399.44;5057139;28;20091;-47
2023/03/05 02:34:11;;;;;;;36.42;14.07;;;;;;;5.93;100.00;96409.91;5058272;28;20080;-47
2023/03/05 02:36:41;;;;;;;29.92;12.80;;;;;;;5.92;100.00;96403.00;5059415;28;20076;-45
2023/03/05 02:39:09;;;;;;;34.50;13.95;;;;;;;5.69;100.00;96415.19;5057703;28;20474;-51
2023/03/05 02:41:38;;;;;;;41.55;15.18;;;;;;;5.82;100.00;96407.25;5058928;28;20501;-44
2023/03/05 02:44:06;;;;;;;34.03;12.95;;;;;;;5.85;100.00;96407.00;5057419;28;20084;-47
2023/03/05 02:46:34;;;;;;;42.78;15.57;;;;;;;6.01;100.00;96406.69;5060404;28;20081;-46
2023/03/05 02:49:02;;;;;;;47.45;16.95;;;;;;;6.05;100.00;96399.44;5056733;28;20702;-44
2023/03/05 02:51:31;;;;;;;38.65;15.30;;;;;;;5.85;100.00;96393.94;5061189;28;20076;-49
2023/03/05 02:54:01;;;;;;;42.97;16.85;;;;;;;5.94;100.00;96393.22;5060830;28;20742;-50
2023/03/05 02:56:29;;;;;;;33.73;12.67;;;;;;;5.76;100.00;96394.63;5057081;28;20080;-51
2023/03/05 02:58:57;;;;;;;38.63;16.23;;;;;;;6.32;100.00;96389.44;5055296;28;20088;-53
2023/03/05 03:01:26;;;;;;;42.55;16.77;;;;;;;6.47;100.00;96390.03;5056688;28;20505;-45
2023/03/05 03:03:55;;;;;;;46.00;19.65;;;;;;;7.04;95.72;96382.84;5056378;28;20076;-49
2023/03/05 03:06:23;;;;;;;35.03;14.85;;;;;;;6.36;100.00;96383.00;5059858;28;20143;-52
2023/03/05 03:08:52;;;;;;;31.08;13.18;;;;;;;6.31;100.00;96373.84;5058354;28;20487;-46
2023/03/05 03:11:21;;;;;;;36.70;16.05;;;;;;;6.37;100.00;96378.63;5055443;28;20080;-49
2023/03/05 03:13:50;;;;;;;42.10;17.60;;;;;;;5.58;100.00;96370.69;5056891;28;20072;-46
2023/03/05 03:16:18;;;;;;;37.00;15.75;;;;;;;6.34;100.00;96377.06;5056582;28;20085;-47
2023/03/05 03:18:47;;;;;;;39.45;16.02;;;;;;;6.56;100.00;96370.94;5058558;28;20094;-47
2023/03/05 03:21:17;;;;;;;25.15;10.38;;;;;;;6.03;100.00;96372.56;5057195;28;20075;-43
2023/03/05 03:23:45;;;;;;;47.60;18.03;;;;;;;6.35;100.00;96362.19;5061966;28;20076;-45
2023/03/05 03:26:14;;;;;;;38.38;15.30;;;;;;;6.52;100.00;96359.06;5070037;28;20083;-45
2023/03/05 03:28:44;;;;;;;41.70;17.70;;;;;;;6.33;100.00;96364.94;5059595;28;20083;-45
2023/03/05 03:31:12;;;;;;;36.60;15.20;;;;;;;6.72;100.00;96362.72;5066456;28;20080;-45
2023/03/05 03:33:40;;;;;;;37.63;15.02;;;;;;;6.06;100.00;96362.69;5064813;28;20083;-47
2023/03/05 03:36:09;;;;;;;45.05;17.27;;;;;;;6.19;100.00;96359.91;5058128;28;20559;-49
2023/03/05 03:38:38;;;;;;;40.38;16.42;;;;;;;6.27;100.00;96351.47;5058360;28;20445;-46
2023/03/05 03:41:07;;;;;;;42.40;14.63;;;;;;;6.35;100.00;96359.56;5061901;28;20106;-43
2023/03/05 03:43:35;;;;;;;38.75;16.40;;;;;;;6.44;100.00;96352.78;5060619;28;20084;-51
2023/03/05 03:46:06;;;;;;;45.38;17.83;;;;;;;6.90;100.00;96348.09;5057175;28;20064;-45
2023/03/05 03:48:35;;;;;;;41.70;17.42;;;;;;;6.70;100.00;96348.88;5055494;28;20068;-51
2023/03/05 03:51:05;;;;;;;46.00;18.67;;;;;;;6.39;100.00;96348.72;5055485;28;20677;-45
2023/03/05 03:53:33;;;;;;;40.28;16.80;;;;;;;6.64;100.00;96349.38;5060853;28;20088;-48
2023/03/05 03:56:02;;;;;;;51.55;18.77;;;;;;;6.42;100.00;96342.41;5057465;28;20103;-49
2023/03/05 03:58:30;;;;;;;34.25;14.70;;;;;;;5.89;100.00;96347.41;5056557;28;20533;-50
2023/03/05 04:00:58;;;;;;;36.15;15.63;;;;;;;6.23;100.00;96340.41;5056149;28;20164;-46
2023/03/05 04:03:28;;;;;;;34.15;14.75;;;;;;;6.29;100.00;96336.47;5056324;28;20072;-49
2023/03/05 04:05:56;;;;;;;34.50;12.73;;;;;;;6.31;100.00;96337.19;5061052;28;20609;-46
2023/03/05 04:08:24;;;;;;;50.45;17.98;;;;;;;6.48;100.00;96334.06;5055863;28;20513;-56
2023/03/05 04:10:53;;;;;;;45.72;18.50;;;;;;;7.09;100.00;96336.97;5057243;28;20137;-44
2023/03/05 04:13:21;;;;;;;40.47;16.42;;;;;;;6.48;100.00;96333.22;5058024;28;20490;-50
2023/03/05 04:15:50;;;;;;;42.38;15.90;;;;;;;6.56;100.00;96333.44;5061347;28;20525;-46
2023/03/05 04:18:18;;;;;;;40.63;15.90;;;;;;;6.42;100.00;96329.31;5059827;28;20067;-44
2023/03/05 04:20:48;;;;;;;45.50;17.48;;;;;;;6.92;100.00;96321.78;5060834;28;20075;-42
2023/03/05 04:23:17;;;;;;;42.03;15.27;;;;;;;7.00;100.00;96321.16;5060121;28;20456;-47
2023/03/05 04:25:45;;;;;;;49.08;19.25;;;;;;;6.76;100.00;96318.75;5076150;28;20086;-50
2023/03/05 04:28:13;;;;;;;40.53;17.50;;;;;;;6.38;100.00;96318.25;5059962;28;20469;-46
2023/03/05 04:30:42;;;;;;;39.08;15.93;;;;;;;6.63;100.00;96316.28;5058690;28;20060;-48
2023/03/05 04:33:10;;;;;;;44.72;17.17;;;;;;;6.72;100.00;96306.84;5060645;28;20091;-45
2023/03/05 04:35:38;;;;;;;40.35;17.55;;;;;;;6.88;100.00;96304.63;5059853;28;20070;-48
2023/03/05 04:38:09;;;;;;;46.22;17.98;;;;;;;6.63;100.00;96311.84;5059976;28;20076;-55
2023/03/05 04:40:37;;;;;;;38.25;13.27;;;;;;;6.41;100.00;96302.28;5062137;28;20064;-46
2023/03/05 04:43:06;;;;;;;39.33;15.13;;;;;;;6.90;100.00;96307.97;5063750;28;20060;-47
2023/03/05 04:45:35;;;;;;;42.90;16.05;;;;;;;6.20;100.00;96304.00;5059496;28;20071;-49
2023/03/05 04:48:04;;;;;;;43.60;14.63;;;;;;;6.41;100.00;96304.91;5062061;28;20652;-52
2023/03/05 04:50:33;;;;;;;35.00;14.63;;;;;;;6.53;100.00;96305.69;5062006;28;20072;-45
2023/03/05 04:53:01;;;;;;;40.15;16.42;;;;;;;6.18;100.00;96296.25;5062184;28;20060;-45
2023/03/05 04:55:31;;;;;;;35.13;14.02;;;;;;;6.28;100.00;96298.97;5060472;28;20084;-45
2023/03/05 04:57:59;;;;;;;42.63;15.65;;;;;;;6.74;100.00;96295.25;5062880;28;20084;-46
2023/03/05 05:00:28;;;;;;;45.13;17.60;;;;;;;6.57;100.00;96290.56;5057400;28;20089;-50
2023/03/05 05:02:56;;;;;;;42.33;14.02;;;;;;;6.60;100.00;96293.75;5062792;28;20072;-50
2023/03/05 05:05:28;;;;;;;43.75;17.02;;;;;;;6.59;100.00;96289.50;5062795;28;20513;-47
2023/03/05 05:07:57;;;;;;;44.63;18.02;;;;;;;6.54;100.00;96290.84;5061646;28;20080;-47
2023/03/05 05:10:26;;;;;;;38.97;15.57;;;;;;;6.68;100.00;96287.94;5060159;28;20084;-45
2023/03/05 05:12:56;;;;;;;50.50;17.08;;;;;;;6.77;100.00;96287.16;5064324;28;20076;-48
2023/03/05 05:15:24;;;;;;;45.47;15.87;;;;;;;6.84;100.00;96280.44;5056330;28;20089;-51
2023/03/05 05:17:53;;;;;;;38.22;16.48;;;;;;;6.53;100.00;96281.28;5061253;28;20072;-47
2023/03/05 05:20:21;;;;;;;37.08;14.98;;;;;;;6.39;100.00;96287.63;5060933;28;20084;-49
2023/03/05 05:22:49;;;;;;;41.42;17.40;;;;;;;6.61;100.00;96289.38;5059840;28;20596;-49
2023/03/05 05:25:18;;;;;;;42.85;17.60;;;;;;;6.48;100.00;96286.09;5059454;28;20099;-49
2023/03/05 05:27:46;;;;;;;38.60;14.52;;;;;;;6.50;100.00;96284.97;5058580;28;20099;-45
2023/03/05 05:30:17;;;;;;;37.95;14.13;;;;;;;6.39;100.00;96283.22;5060707;28;20090;-53
2023/03/05 05:32:45;;;;;;;41.05;14.77;;;;;;;6.47;100.00;96287.03;5062795;28;20068;-46
2023/03/05 05:35:14;;;;;;;36.53;15.02;;;;;;;6.65;100.00;96283.75;5062159;28;20087;-49
2023/03/05 05:37:42;;;;;;;41.45;16.42;;;;;;;6.21;100.00;96278.66;5058834;28;20080;-45
2023/03/05 05:40:11;;;;;;;45.83;17.15;;;;;;;6.83;100.00;96284.03;5060352;28;20075;-48
2023/03/05 05:42:40;;;;;;;43.78;17.45;;;;;;;6.53;100.00;96289.97;5062475;28;20068;-46
2023/03/05 05:45:09;;;;;;;41.72;15.60;;;;;;;6.91;100.00;96288.66;5074873;28;20512;-45
2023/03/05 05:47:39;;;;;;;42.10;16.15;;;;;;;6.88;100.00;96291.50;5059856;28;20449;-44
2023/03/05 05:50:08;;;;;;;45.77;16.63;;;;;;;6.77;100.00;96287.16;5058169;28;20163;-45
2023/03/05 05:52:37;;;;;;;27.08;10.80;;;;;;;6.72;100.00;96296.38;5060572;28;20076;-49
2023/03/05 05:55:06;;;;;;;44.53;18.08;;;;;;;6.33;100.00;96288.97;5063546;28;20079;-52
2023/03/05 05:57:35;;;;;;;29.42;12.20;;;;;;;7.07;100.00;96289.06;5056382;28;20075;-47
2023/03/05 06:00:06;;;;;;;43.75;17.52;;;;;;;6.57;100.00;96295.81;5060618;28;20084;-48
2023/03/05 06:02:39;;;;;;;37.65;15.20;;;;;;;6.78;100.00;96295.84;5062553;28;20506;-48
2023/03/05 06:05:10;;;;;;;40.90;17.20;;;;;;;7.22;100.00;96291.34;5060760;28;20088;-48
2023/03/05 06:07:38;;;;;;;45.85;17.80;;;;;;;7.27;100.00;96297.88;5062092;28;20082;-47
2023/03/05 06:10:08;;;;;;;42.58;17.00;;;;;;;7.01;100.00;96296.59;5061604;28;20509;-47
2023/03/05 06:12:37;;;;;;;40.20;16.50;;;;;;;6.80;100.00;96293.94;5059752;28;20082;-48
2023/03/05 06:15:06;;;;;;;37.17;15.63;;;;;;;6.92;100.00;96295.56;5067115;28;20068;-46
2023/03/05 06:17:35;;;;;;;38.30;16.40;;;;;;;7.08;100.00;96290.69;5059687;28;20095;-53
2023/03/05 06:20:06;;;;;;;51.38;18.80;;;;;;;7.11;100.00;96293.06;5057903;28;20525;-54
2023/03/05 06:22:36;;;;;;;40.00;16.20;;;;;;;7.35;100.00;96292.00;5057595;28;20139;-48
2023/03/05 06:25:05;;;;;;;42.60;17.05;;;;;;;7.46;100.00;96291.09;5057724;28;20335;-46
2023/03/05 06:27:35;;;;;;;37.85;16.08;;;;;;;7.26;100.00;96288.38;5057546;28;20091;-47
2023/03/05 06:30:04;;;;;;;41.35;16.30;;;;;;;7.10;100.00;96287.97;5056506;28;20069;-46
2023/03/05 06:32:32;;;;;;;42.28;18.08;;;;;;;7.57;100.00;96278.75;5059137;28;20091;-44
2023/03/05 06:35:01;;;;;;;46.72;19.30;;;;;;;7.45;100.00;96286.81;5057134;28;20116;-50
2023/03/05 06:37:30;;;;;;;46.88;17.40;;;;;;;7.64;100.00;96279.03;5056572;28;20166;-48
2023/03/05 06:39:59;;;;;;;44.63;17.63;;;;;;;7.59;100.00;96287.28;5056174;28;20099;-48
2023/03/05 06:42:27;;;;;;;48.53;18.15;;;;;;;7.74;100.00;96274.69;5058213;28;20111;-54
2023/03/05 06:44:55;;;;;;;46.92;18.73;;;;;;;7.18;100.00;96292.56;5057809;28;20067;-49
2023/03/05 06:47:24;;;;;;;46.90;17.67;;;;;;;7.50;100.00;96282.00;5057779;28;20517;-47
2023/03/05 06:49:52;;;;;;;41.95;16.05;;;;;;;7.46;100.00;96281.41;5059803;28;20128;-43
2023/03/05 06:52:20;;;;;;;48.38;15.88;;;;;;;7.82;100.00;96276.63;5054715;28;20096;-50
2023/03/05 06:54:51;;;;;;;45.03;16.45;;;;;;;7.33;100.00;96279.03;5057601;28;22430;-44
2023/03/05 06:57:19;;;;;;;37.22;16.23;;;;;;;7.57;100.00;96283.13;5060130;28;20096;-48
2023/03/05 06:59:48;;;;;;;36.78;15.55;;;;;;;7.22;100.00;96273.81;5055185;28;20087;-45
2023/03/05 07:02:17;;;;;;;43.25;17.40;;;;;;;7.25;100.00;96277.97;5055465;28;20442;-47
2023/03/05 07:04:46;;;;;;;46.30;18.05;;;;;;;7.28;100.00;96280.34;5060664;28;20498;-52
2023/03/05 07:07:15;;;;;;;42.50;17.67;;;;;;;7.50;100.00;96274.97;5058710;28;20699;-45
2023/03/05 07:09:44;;;;;;;43.22;16.48;;;;;;;7.38;100.00;96279.44;5052611;28;20094;-45
2023/03/05 07:12:14;;;;;;;39.20;16.53;;;;;;;7.85;100.00;96269.31;5054701;28;20140;-48
2023/03/05 07:14:42;;;;;;;44.45;17.63;;;;;;;7.50;100.00;96282.84;5055804;28;20908;-50
2023/03/05 07:17:11;;;;;;;40.80;16.92;;;;;;;7.38;100.00;96276.00;5061093;28;20075;-49
2023/03/05 07:19:39;;;;;;;49.92;17.38;;;;;;;7.48;100.00;96276.06;5057080;28;20107;-55
2023/03/05 07:22:07;;;;;;;40.15;17.55;;;;;;;7.17;100.00;96288.28;5057387;28;20135;-51
2023/03/05 07:24:36;;;;;;;41.65;17.30;;;;;;;8.28;100.00;96264.75;5060126;28;20072;-50
2023/03/05 07:27:04;;;;;;;39.65;16.00;;;;;;;7.35;100.00;96286.75;5056735;28;20087;-46
2023/03/05 07:29:34;;;;;;;39.80;17.05;;;;;;;7.88;100.00;96268.22;5058098;28;20088;-42
2023/03/05 07:32:02;;;;;;;45.17;19.77;;;;;;;8.33;94.07;96271.25;5062453;28;20075;-46
2023/03/05 07:34:31;;;;;;;40.75;16.45;;;;;;;8.30;95.68;96266.28;5064715;28;20068;-47
2023/03/05 07:36:59;;;;;;;39.80;16.13;;;;;;;7.50;100.00;96268.88;5063095;28;20564;-50
2023/03/05 07:39:28;;;;;;;43.75;16.77;;;;;;;7.99;100.00;96264.69;5064437;28;20091;-50
2023/03/05 07:41:56;;;;;;;43.72;16.65;;;;;;;7.51;100.00;96263.50;5061428;28;20080;-46
2023/03/05 07:44:24;;;;;;;40.92;16.67;;;;;;;7.78;100.00;96265.56;5059375;28;21830;-50
2023/03/05 07:46:54;;;;;;;41.50;15.65;;;;;;;7.18;100.00;96272.41;5060275;28;20080;-46
2023/03/05 07:49:22;;;;;;;39.03;16.63;;;;;;;8.27;100.00;96255.22;5064669;28;20115;-51
2023/03/05 07:51:51;;;;;;;41.30;15.45;;;;;;;7.60;100.00;96262.75;5067639;28;20088;-46
2023/03/05 07:54:19;;;;;;;35.28;14.50;;;;;;;7.82;100.00;96260.88;5067311;28;20068;-50
2023/03/05 07:56:47;;;;;;;47.30;18.80;;;;;;;8.41;100.00;96254.00;5062180;28;20088;-52
2023/03/05 07:59:15;;;;;;;38.85;15.30;;;;;;;8.18;100.00;96258.63;5063977;28;20786;-46
2023/03/05 08:01:45;;;;;;;36.20;14.43;;;;;;;8.16;100.00;96252.69;5062815;28;20107;-45
2023/03/05 08:04:14;;;;;;;31.17;13.73;;;;;;;8.01;100.00;96255.69;5063584;28;20079;-48
2023/03/05 08:06:43;;;;;;;43.87;13.87;;;;;;;7.77;100.00;96257.81;5065376;28;20084;-48
2023/03/05 08:09:11;;;;;;;36.45;14.93;;;;;;;7.96;100.00;96252.63;5064443;28;20511;-50
2023/03/05 08:11:40;;;;;;;28.75;12.23;;;;;;;7.41;100.00;96259.19;5061534;28;20076;-44
2023/03/05 08:14:08;;;;;;;31.05;12.23;;;;;;;7.79;100.00;96246.22;5066146;28;20064;-51
2023/03/05 08:16:36;;;;;;;30.65;13.43;;;;;;;7.62;100.00;96252.09;5067818;28;20683;-46
2023/03/05 08:19:05;;;;;;;31.13;13.27;;;;;;;8.06;100.00;96243.00;5066239;28;20084;-46
2023/03/05 08:21:35;;;;;;;35.42;15.13;;;;;;;8.44;100.00;96248.50;5060238;28;20519;-47
2023/03/05 08:24:06;;;;;;;34.05;14.95;;;;;;;7.97;100.00;96242.97;5060132;28;20115;-45
2023/03/05 08:26:36;;;;;;;;;;;;;;;8.04;100.00;96238.84;5059414;28;20064;-50
2023/03/05 08:29:05;;;;;;;34.47;14.20;;;;;;;8.00;100.00;96238.28;5059354;28;19982;-45
2023/03/05 08:31:34;;;;;;;30.35;13.00;;;;;;;7.92;100.00;96235.50;5060328;28;20087;-51
2023/03/05 08:34:04;;;;;;;33.65;13.85;;;;;;;8.09;100.00;96239.28;5064745;28;20075;-47
2023/03/05 08:36:33;;;;;;;41.28;15.32;;;;;;;8.28;100.00;96233.22;5062284;28;20087;-46
2023/03/05 08:39:02;;;;;;;37.53;14.97;;;;;;;7.60;100.00;96235.63;5067029;28;20466;-43
2023/03/05 08:41:30;;;;;;;37.75;15.23;;;;;;;7.98;100.00;96237.59;5064925;28;20091;-50
2023/03/05 08:43:58;;;;;;;34.35;13.40;;;;;;;7.92;100.00;96232.03;5064862;28;20071;-48
2023/03/05 08:46:27;;;;;;;29.00;12.18;;;;;;;8.41;100.00;96228.56;5067604;28;20064;-48
2023/03/05 08:48:55;;;;;;;25.67;12.43;;;;;;;8.21;100.00;96226.84;5068696;28;20076;-47
2023/03/05 08:51:25;;;;;;;31.25;12.98;;;;;;;8.21;100.00;96232.94;5067341;28;20079;-46
2023/03/05 08:53:56;;;;;;;36.85;12.48;;;;;;;8.19;100.00;96221.75;5065398;28;20544;-47
2023/03/05 08:56:27;;;;;;;23.73;9.20;;;;;;;8.74;100.00;96219.47;5057702;28;20067;-46
2023/03/05 08:58:55;;;;;;;37.78;13.60;;;;;;;8.04;100.00;96230.97;5062499;28;20095;-47
2023/03/05 09:01:23;;;;;;;27.85;12.75;;;;;;;8.59;100.00;96227.88;5063753;28;20076;-50
2023/03/05 09:03:52;;;;;;;28.48;11.82;;;;;;;8.25;100.00;96218.56;5067001;28;20076;-44
2023/03/05 09:06:20;;;;;;;30.50;12.75;;;;;;;8.60;100.00;96226.91;5056003;28;20068;-45
2023/03/05 09:08:48;;;;;;;32.55;13.18;;;;;;;8.35;100.00;96215.94;5080528;28;20155;-46
2023/03/05 09:11:18;;;;;;;39.45;14.52;;;;;;;8.58;100.00;96206.03;5062704;28;20064;-45
2023/03/05 09:13:47;;;;;;;37.70;14.60;;;;;;;8.76;97.21;96208.78;5065335;28;20072;-45
2023/03/05 09:16:17;;;;;;;35.00;14.60;;;;;;;9.86;88.61;96200.31;5066542;28;20086;-46
2023/03/05 09:18:45;;;;;;;37.50;15.50;;;;;;;9.43;90.34;96205.22;5063980;28;20457;-50
2023/03/05 09:21:15;;;;;;;35.00;15.75;;;;;;;9.37;85.62;96208.41;5065366;28;20072;-46
2023/03/05 09:23:45;;;;;;;35.45;14.38;;;;;;;9.14;87.33;96204.44;5064534;28;20067;-47
2023/03/05 09:26:17;;;;;;;36.20;16.95;;;;;;;8.86;100.00;96211.41;5065260;28;20084;-43
2023/03/05 09:28:48;;;;;;;35.97;15.93;;;;;;;8.70;98.35;96207.53;5064169;28;20070;-44
2023/03/05 09:31:16;;;;;;;38.88;16.15;;;;;;;9.90;85.99;96196.41;5068893;28;20470;-47
2023/03/05 09:33:45;;;;;;;36.50;15.90;;;;;;;8.98;91.51;96197.13;5065661;28;20090;-50
2023/03/05 09:36:21;;;;;;;40.03;16.38;;;;;;;9.73;88.78;96195.38;5066711;28;20071;-46
2023/03/05 09:38:50;;;;;;;34.33;14.85;;;;;;;8.86;98.17;96200.91;5064360;28;20068;-46
2023/03/05 09:41:29;;;;;;;29.98;12.77;;;;;;;9.59;86.29;96193.22;5069056;28;20079;-46
2023/03/05 09:44:07;;;;;;;33.75;13.63;;;;;;;9.21;87.62;96198.47;5065046;28;20075;-46
2023/03/05 09:46:48;;;;;;;32.65;13.43;;;;;;;9.90;85.96;96196.41;5065730;28;20097;-48
2023/03/05 09:49:18;;;;;;;32.33;14.52;;;;;;;10.12;79.82;96195.19;5065195;28;20513;-44
2023/03/05 09:51:51;;;;;;;37.55;15.48;;;;;;;9.81;83.09;96192.84;5061116;28;20067;-44
2023/03/05 09:54:21;;;;;;;38.25;15.45;;;;;;;9.75;90.52;96194.25;5059666;28;20590;-46
2023/03/05 09:56:55;;;;;;;21.90;10.32;;;;;;;9.77;87.01;96195.91;5064137;28;20083;-44
2023/03/05 09:59:29;;;;;;;36.63;15.55;;;;;;;9.63;89.16;96190.13;5070993;28;20076;-46
2023/03/05 10:02:01;;;;;;;25.00;10.88;;;;;;;9.04;95.84;96193.94;5062537;28;20536;-48
2023/03/05 10:04:41;;;;;;;25.30;10.63;;;;;;;8.98;100.00;96199.75;5060643;28;20494;-46
2023/03/05 10:07:17;;;;;;;26.38;11.48;;;;;;;9.12;100.00;96185.34;5060491;28;20079;-49
2023/03/05 10:09:49;;;;;;;19.60;8.40;;;;;;;8.79;100.00;96190.94;5055482;28;20079;-46
2023/03/05 10:12:24;;;;;;;34.15;10.98;;;;;;;9.07;100.00;96187.56;5057396;28;20108;-49
2023/03/05 10:14:54;;;;;;;28.73;11.27;;;;;;;9.20;97.25;96181.03;5059239;28;20135;-46
2023/03/05 10:17:39;;;;;;;;;;;;;;;8.90;100.00;96187.31;5060899;28;20466;-48
2023/03/05 10:20:15;;;;;;;35.15;13.75;;;;;;;8.61;100.00;96184.72;5057517;28;19963;-50
2023/03/05 10:22:58;;;;;;;30.83;12.30;;;;;;;9.50;92.79;96176.50;5059161;28;20544;-46
2023/03/05 10:25:40;;;;;;;30.40;12.95;;;;;;;9.77;91.48;96170.41;5063333;28;20060;-50
2023/03/05 10:28:16;;;;;;;34.60;13.20;;;;;;;9.61;96.54;96165.78;5057254;28;20076;-45
2023/03/05 10:31:02;;;;;;;23.13;9.85;;;;;;;9.31;93.12;96161.59;5055373;28;20072;-44
2023/03/05 10:33:35;;;;;;;29.88;12.18;;;;;;;9.55;87.48;96153.19;5053820;28;20080;-47
2023/03/05 10:36:26;;;;;;;33.08;14.43;;;;;;;9.27;91.14;96160.25;5063412;28;20522;-49
2023/03/05 10:39:05;;;;;;;19.83;9.63;;;;;;;9.69;84.96;96151.88;5061568;28;20540;-43
2023/03/05 10:41:38;;;;;;;25.33;10.30;;;;;;;9.68;90.60;96151.06;5058389;28;20084;-48
2023/03/05 10:44:11;;;;;;;25.25;11.48;;;;;;;9.51;99.38;96146.56;5057321;28;20083;-48
2023/03/05 10:46:41;;;;;;;27.70;10.18;;;;;;;9.55;93.04;96150.56;5058968;28;20068;-45
2023/03/05 10:49:17;;;;;;;20.25;8.73;;;;;;;9.28;93.72;96146.09;5055592;28;20517;-44
2023/03/05 10:51:51;;;;;;;27.95;11.52;;;;;;;9.61;92.48;96136.81;5058134;28;20072;-43
2023/03/05 10:54:24;;;;;;;24.23;9.30;;;;;;;9.62;88.80;96138.47;5064893;28;20474;-43
2023/03/05 10:57:03;;;;;;;21.65;8.27;;;;;;;9.68;94.26;96137.06;5062003;28;20174;-49
2023/03/05 10:59:32;;;;;;;23.02;9.57;;;;;;;9.64;91.09;96133.09;5054261;28;20249;-45
2023/03/05 11:02:07;;;;;;;29.27;11.27;;;;;;;9.26;90.00;96127.84;5055239;28;20537;-48
2023/03/05 11:04:38;;;;;;;35.78;14.48;;;;;;;9.31;92.71;96119.50;5049928;28;20183;-44
2023/03/05 11:07:08;;;;;;;30.63;12.77;;;;;;;9.46;95.05;96115.44;5052324;28;20119;-46
2023/03/05 11:09:36;;;;;;;;;;;;;;;9.52;85.47;96111.38;5055517;28;20063;-43
2023/03/05 11:12:11;;;;;;;25.80;11.15;;;;;;;9.60;92.31;96114.13;5053819;28;19966;-45
2023/03/05 11:14:41;;;;;;;29.50;11.80;;;;;;;9.85;87.31;96106.47;5066483;28;20124;-52
2023/03/05 11:17:29;;;;;;;31.30;13.82;;;;;;;9.77;88.96;96101.94;5054364;28;20082;-52
2023/03/05 11:20:21;;;;;;;21.08;9.77;;;;;;;9.77;89.58;96104.56;5053705;28;20080;-47
2023/03/05 11:23:03;;;;;;;36.70;14.00;;;;;;;9.45;94.57;96103.22;5058939;28;20099;-46
2023/03/05 11:25:33;;;;;;;29.45;13.45;;;;;;;9.21;97.47;96105.56;5056337;28;20086;-47
2023/03/05 11:28:03;;;;;;;31.15;12.40;;;;;;;9.61;94.43;96086.81;5059759;28;20091;-50
2023/03/05 11:30:33;;;;;;;24.80;9.70;;;;;;;9.57;93.99;96095.97;5055204;28;20065;-50
2023/03/05 11:33:12;;;;;;;27.90;12.75;;;;;;;9.28;96.14;96091.66;5055123;28;20072;-44